sensor_id;sensor_type;location;lat;lon;timestamp;pressure;altitude;pressure_sealevel;temperature
63158;BMP280;49381;49.338;8.794;2023-03-14T00:00:13;98529.44;;;11.28
63158;BMP280;49381;49.338;8.794;2023-03-14T00:05:17;98539.56;;;11.29
63158;BMP280;49381;49.338;8.794;2023-03-14T00:08:53;98547.19;;;11.29
63158;BMP280;49381;49.338;8.794;2023-03-14T00:09:57;98545.47;;;11.30
63158;BMP280;49381;49.338;8.794;2023-03-14T00:12:09;98552.31;;;11.27
63158;BMP280;49381;49.338;8.794;2023-03-14T00:14:59;98538.06;;;11.21
63158;BMP280;49381;49.338;8.794;2023-03-14T00:24:01;98543.25;;;11.17
63158;BMP280;49381;49.338;8.794;2023-03-14T00:26:45;98541.41;;;11.23
63158;BMP280;49381;49.338;8.794;2023-03-14T00:30:54;98529.38;;;11.31
63158;BMP280;49381;49.338;8.794;2023-03-14T00:33:38;98512.34;;;11.37
63158;BMP280;49381;49.338;8.794;2023-03-14T00:35:59;98525.84;;;11.39
63158;BMP280;49381;49.338;8.794;2023-03-14T00:43:22;98515.31;;;11.53
63158;BMP280;49381;49.338;8.794;2023-03-14T00:46:03;98513.56;;;11.56
63158;BMP280;49381;49.338;8.794;2023-03-14T00:48:06;98514.50;;;11.52
63158;BMP280;49381;49.338;8.794;2023-03-14T00:50:20;98509.25;;;11.59
63158;BMP280;49381;49.338;8.794;2023-03-14T01:01:40;98508.91;;;11.71
63158;BMP280;49381;49.338;8.794;2023-03-14T01:11:18;98527.34;;;11.78
63158;BMP280;49381;49.338;8.794;2023-03-14T01:13:10;98519.81;;;11.75
63158;BMP280;49381;49.338;8.794;2023-03-14T01:15:11;98524.84;;;11.76
63158;BMP280;49381;49.338;8.794;2023-03-14T01:19:50;98505.25;;;11.81
63158;BMP280;49381;49.338;8.794;2023-03-14T01:22:21;98499.22;;;11.85
63158;BMP280;49381;49.338;8.794;2023-03-14T01:24:53;98498.34;;;11.86
63158;BMP280;49381;49.338;8.794;2023-03-14T01:32:03;98477.97;;;11.89
63158;BMP280;49381;49.338;8.794;2023-03-14T01:34:09;98480.34;;;11.95
63158;BMP280;49381;49.338;8.794;2023-03-14T01:36:19;98479.47;;;11.96
63158;BMP280;49381;49.338;8.794;2023-03-14T01:40:40;98477.81;;;11.95
63158;BMP280;49381;49.338;8.794;2023-03-14T01:40:52;98462.66;;;11.92
63158;BMP280;49381;49.338;8.794;2023-03-14T01:46:17;98441.44;;;11.94
63158;BMP280;49381;49.338;8.794;2023-03-14T01:48:23;98453.19;;;11.97
63158;BMP280;49381;49.338;8.794;2023-03-14T01:50:23;98462.47;;;11.98
63158;BMP280;49381;49.338;8.794;2023-03-14T01:52:50;98449.00;;;11.96
63158;BMP280;49381;49.338;8.794;2023-03-14T01:57:16;98427.63;;;12.03
63158;BMP280;49381;49.338;8.794;2023-03-14T01:59:38;98424.31;;;12.01
63158;BMP280;49381;49.338;8.794;2023-03-14T02:02:16;98421.78;;;12.01
63158;BMP280;49381;49.338;8.794;2023-03-14T02:05:01;98414.28;;;11.96
63158;BMP280;49381;49.338;8.794;2023-03-14T02:09:31;98412.81;;;11.89
63158;BMP280;49381;49.338;8.794;2023-03-14T02:12:23;98419.25;;;12.01
63158;BMP280;49381;49.338;8.794;2023-03-14T02:14:30;98405.81;;;11.97
63158;BMP280;49381;49.338;8.794;2023-03-14T02:17:03;98408.41;;;11.96
63158;BMP280;49381;49.338;8.794;2023-03-14T02:34:49;98413.22;;;12.05
63158;BMP280;49381;49.338;8.794;2023-03-14T02:36:41;98409.09;;;12.01
63158;BMP280;49381;49.338;8.794;2023-03-14T02:39:11;98403.13;;;12.02
63158;BMP280;49381;49.338;8.794;2023-03-14T02:41:30;98382.00;;;12.01
63158;BMP280;49381;49.338;8.794;2023-03-14T02:51:39;98397.97;;;12.05
63158;BMP280;49381;49.338;8.794;2023-03-14T02:54:01;98381.91;;;12.04
63158;BMP280;49381;49.338;8.794;2023-03-14T02:56:02;98382.69;;;12.06
63158;BMP280;49381;49.338;8.794;2023-03-14T03:00:51;98368.66;;;11.95
63158;BMP280;49381;49.338;8.794;2023-03-14T03:02:54;98366.00;;;11.98
63158;BMP280;49381;49.338;8.794;2023-03-14T03:15:24;98360.34;;;11.90
63158;BMP280;49381;49.338;8.794;2023-03-14T03:18:48;98358.69;;;11.89
63158;BMP280;49381;49.338;8.794;2023-03-14T03:20:31;98351.03;;;11.90
63158;BMP280;49381;49.338;8.794;2023-03-14T04:50:12;98267.66;;;11.79
63158;BMP280;49381;49.338;8.794;2023-03-14T04:53:06;98250.84;;;11.75
63158;BMP280;49381;49.338;8.794;2023-03-14T05:00:24;98254.22;;;11.75
63158;BMP280;49381;49.338;8.794;2023-03-14T05:04:42;98251.69;;;11.75
63158;BMP280;49381;49.338;8.794;2023-03-14T05:07:14;98257.63;;;11.74
63158;BMP280;49381;49.338;8.794;2023-03-14T05:09:39;98255.81;;;11.78
63158;BMP280;49381;49.338;8.794;2023-03-14T05:14:48;98245.84;;;11.72
63158;BMP280;49381;49.338;8.794;2023-03-14T05:41:49;98269.56;;;11.71
63158;BMP280;49381;49.338;8.794;2023-03-14T05:42:54;98258.75;;;11.66
63158;BMP280;49381;49.338;8.794;2023-03-14T07:31:03;98221.66;;;12.14
63158;BMP280;49381;49.338;8.794;2023-03-14T07:38:51;98218.84;;;12.22
63158;BMP280;49381;49.338;8.794;2023-03-14T08:23:19;98225.19;;;12.34
63158;BMP280;49381;49.338;8.794;2023-03-14T08:26:11;98229.53;;;12.31
63158;BMP280;49381;49.338;8.794;2023-03-14T10:21:39;98276.47;;;12.95
63158;BMP280;49381;49.338;8.794;2023-03-14T10:23:40;98286.72;;;12.92
63158;BMP280;49381;49.338;8.794;2023-03-14T10:25:42;98300.03;;;13.00
63158;BMP280;49381;49.338;8.794;2023-03-14T10:27:43;98287.69;;;12.89
63158;BMP280;49381;49.338;8.794;2023-03-14T10:29:59;98297.91;;;12.88
63158;BMP280;49381;49.338;8.794;2023-03-14T10:32:04;98293.75;;;12.85
63158;BMP280;49381;49.338;8.794;2023-03-14T10:34:05;98293.19;;;12.78
63158;BMP280;49381;49.338;8.794;2023-03-14T10:36:17;98295.34;;;12.62
63158;BMP280;49381;49.338;8.794;2023-03-14T10:38:38;98294.72;;;12.81
63158;BMP280;49381;49.338;8.794;2023-03-14T10:41:13;98288.66;;;12.85
63158;BMP280;49381;49.338;8.794;2023-03-14T10:43:18;98299.66;;;12.86
63158;BMP280;49381;49.338;8.794;2023-03-14T10:47:48;98294.63;;;12.84
63158;BMP280;49381;49.338;8.794;2023-03-14T10:49:58;98283.56;;;12.85
63158;BMP280;49381;49.338;8.794;2023-03-14T10:52:39;98294.63;;;12.84
63158;BMP280;49381;49.338;8.794;2023-03-14T10:54:54;98287.91;;;12.58
63158;BMP280;49381;49.338;8.794;2023-03-14T10:56:58;98296.75;;;12.72
63158;BMP280;49381;49.338;8.794;2023-03-14T10:58:59;98292.63;;;12.68
63158;BMP280;49381;49.338;8.794;2023-03-14T11:01:12;98295.91;;;12.72
63158;BMP280;49381;49.338;8.794;2023-03-14T11:03:19;98296.16;;;12.64
63158;BMP280;49381;49.338;8.794;2023-03-14T11:05:27;98292.94;;;12.59
63158;BMP280;49381;49.338;8.794;2023-03-14T11:07:33;98293.53;;;12.66
63158;BMP280;49381;49.338;8.794;2023-03-14T11:09:42;98293.34;;;12.48
63158;BMP280;49381;49.338;8.794;2023-03-14T11:11:46;98299.97;;;12.26
63158;BMP280;49381;49.338;8.794;2023-03-14T11:14:26;98300.22;;;12.44
63158;BMP280;49381;49.338;8.794;2023-03-14T11:16:36;98307.72;;;12.47
63158;BMP280;49381;49.338;8.794;2023-03-14T11:18:51;98297.69;;;12.44
63158;BMP280;49381;49.338;8.794;2023-03-14T11:21:13;98286.69;;;12.44
63158;BMP280;49381;49.338;8.794;2023-03-14T11:23:18;98301.09;;;12.18
63158;BMP280;49381;49.338;8.794;2023-03-14T11:25:26;98308.81;;;12.15
63158;BMP280;49381;49.338;8.794;2023-03-14T11:27:43;98312.34;;;12.09
63158;BMP280;49381;49.338;8.794;2023-03-14T11:29:53;98313.41;;;12.03
63158;BMP280;49381;49.338;8.794;2023-03-14T11:31:55;98323.28;;;12.11
63158;BMP280;49381;49.338;8.794;2023-03-14T11:34:01;98316.19;;;11.95
63158;BMP280;49381;49.338;8.794;2023-03-14T11:36:07;98323.41;;;12.08
63158;BMP280;49381;49.338;8.794;2023-03-14T11:38:13;98331.16;;;12.03
63158;BMP280;49381;49.338;8.794;2023-03-14T11:40:16;98336.09;;;12.08
63158;BMP280;49381;49.338;8.794;2023-03-14T11:42:21;98331.16;;;12.04
63158;BMP280;49381;49.338;8.794;2023-03-14T11:44:30;98340.13;;;11.87
63158;BMP280;49381;49.338;8.794;2023-03-14T11:46:37;98343.03;;;11.75
63158;BMP280;49381;49.338;8.794;2023-03-14T11:48:44;98359.34;;;11.67
63158;BMP280;49381;49.338;8.794;2023-03-14T11:50:52;98351.91;;;11.61
63158;BMP280;49381;49.338;8.794;2023-03-14T11:52:58;98350.38;;;11.84
63158;BMP280;49381;49.338;8.794;2023-03-14T11:55:05;98350.09;;;11.93
63158;BMP280;49381;49.338;8.794;2023-03-14T11:57:11;98363.66;;;11.92
63158;BMP280;49381;49.338;8.794;2023-03-14T11:59:22;98369.88;;;11.82
63158;BMP280;49381;49.338;8.794;2023-03-14T12:01:33;98381.56;;;11.59
63158;BMP280;49381;49.338;8.794;2023-03-14T12:03:38;98401.94;;;11.56
63158;BMP280;49381;49.338;8.794;2023-03-14T12:05:48;98406.88;;;11.60
63158;BMP280;49381;49.338;8.794;2023-03-14T12:08:18;98404.19;;;11.66
63158;BMP280;49381;49.338;8.794;2023-03-14T12:13:06;98428.13;;;11.56
63158;BMP280;49381;49.338;8.794;2023-03-14T12:15:29;98420.63;;;11.54
63158;BMP280;49381;49.338;8.794;2023-03-14T12:21:42;98458.22;;;11.38
63158;BMP280;49381;49.338;8.794;2023-03-14T12:23:05;98458.19;;;11.40
63158;BMP280;49381;49.338;8.794;2023-03-14T16:17:50;99058.31;;;10.95
63158;BMP280;49381;49.338;8.794;2023-03-14T16:22:29;99052.78;;;10.68
63158;BMP280;49381;49.338;8.794;2023-03-14T16:24:37;99062.06;;;10.70
63158;BMP280;49381;49.338;8.794;2023-03-14T16:27:13;99058.47;;;10.83
63158;BMP280;49381;49.338;8.794;2023-03-14T16:29:45;99056.81;;;10.82
63158;BMP280;49381;49.338;8.794;2023-03-14T16:31:54;99063.47;;;10.89
63158;BMP280;49381;49.338;8.794;2023-03-14T16:34:02;99059.25;;;10.88
63158;BMP280;49381;49.338;8.794;2023-03-14T16:37:31;99072.63;;;10.97
63158;BMP280;49381;49.338;8.794;2023-03-14T16:42:09;99071.91;;;10.89
63158;BMP280;49381;49.338;8.794;2023-03-14T16:44:27;99082.38;;;10.66
63158;BMP280;49381;49.338;8.794;2023-03-14T17:15:08;99139.06;;;10.59
63158;BMP280;49381;49.338;8.794;2023-03-14T17:20:32;99150.94;;;10.54
63158;BMP280;49381;49.338;8.794;2023-03-14T17:25:35;99156.16;;;10.41
63158;BMP280;49381;49.338;8.794;2023-03-14T17:28:04;99157.75;;;10.48
63158;BMP280;49381;49.338;8.794;2023-03-14T17:30:43;99167.09;;;10.43
63158;BMP280;49381;49.338;8.794;2023-03-14T17:38:16;99174.91;;;10.25
63158;BMP280;49381;49.338;8.794;2023-03-14T17:40:57;99191.91;;;10.13
63158;BMP280;49381;49.338;8.794;2023-03-14T17:43:02;99181.72;;;10.17
63158;BMP280;49381;49.338;8.794;2023-03-14T17:47:52;99207.09;;;10.13
63158;BMP280;49381;49.338;8.794;2023-03-14T17:52:47;99219.84;;;10.05
63158;BMP280;49381;49.338;8.794;2023-03-14T17:54:50;99223.16;;;10.10
63158;BMP280;49381;49.338;8.794;2023-03-14T17:57:54;99241.75;;;10.06
63158;BMP280;49381;49.338;8.794;2023-03-14T17:59:24;99240.88;;;10.10
63158;BMP280;49381;49.338;8.794;2023-03-14T18:01:45;99246.81;;;10.09
63158;BMP280;49381;49.338;8.794;2023-03-14T18:07:00;99261.13;;;10.09
63158;BMP280;49381;49.338;8.794;2023-03-14T18:08:55;99265.53;;;9.88
63158;BMP280;49381;49.338;8.794;2023-03-14T18:12:05;99261.31;;;9.87
63158;BMP280;49381;49.338;8.794;2023-03-14T18:14:39;99273.06;;;9.97
63158;BMP280;49381;49.338;8.794;2023-03-14T18:16:43;99277.50;;;9.62
63158;BMP280;49381;49.338;8.794;2023-03-14T18:19:12;99291.00;;;9.64
63158;BMP280;49381;49.338;8.794;2023-03-14T18:21:36;99288.59;;;9.33
63158;BMP280;49381;49.338;8.794;2023-03-14T18:23:51;99286.09;;;9.35
63158;BMP280;49381;49.338;8.794;2023-03-14T18:27:08;99283.50;;;9.47
63158;BMP280;49381;49.338;8.794;2023-03-14T18:28:59;99302.00;;;9.54
63158;BMP280;49381;49.338;8.794;2023-03-14T18:31:19;99315.59;;;9.28
63158;BMP280;49381;49.338;8.794;2023-03-14T18:40:36;99335.81;;;9.33
63158;BMP280;49381;49.338;8.794;2023-03-14T18:43:05;99324.03;;;9.30
63158;BMP280;49381;49.338;8.794;2023-03-14T18:45:11;99333.28;;;9.40
63158;BMP280;49381;49.338;8.794;2023-03-14T18:47:32;99340.00;;;9.37
63158;BMP280;49381;49.338;8.794;2023-03-14T18:49:35;99345.03;;;9.46
63158;BMP280;49381;49.338;8.794;2023-03-14T18:56:50;99370.44;;;9.13
63158;BMP280;49381;49.338;8.794;2023-03-14T18:58:50;99372.09;;;9.23
63158;BMP280;49381;49.338;8.794;2023-03-14T19:01:10;99373.78;;;9.18
63158;BMP280;49381;49.338;8.794;2023-03-14T19:03:12;99377.16;;;9.25
63158;BMP280;49381;49.338;8.794;2023-03-14T19:05:29;99383.09;;;9.12
63158;BMP280;49381;49.338;8.794;2023-03-14T19:07:34;99392.38;;;9.00
63158;BMP280;49381;49.338;8.794;2023-03-14T19:12:08;99392.38;;;8.98
63158;BMP280;49381;49.338;8.794;2023-03-14T19:14:16;99401.63;;;9.08
63158;BMP280;49381;49.338;8.794;2023-03-14T19:16:18;99415.16;;;8.95
63158;BMP280;49381;49.338;8.794;2023-03-14T19:18:20;99420.19;;;8.94
63158;BMP280;49381;49.338;8.794;2023-03-14T19:20:21;99429.47;;;8.73
63158;BMP280;49381;49.338;8.794;2023-03-14T19:22:35;99427.78;;;8.42
63158;BMP280;49381;49.338;8.794;2023-03-14T19:24:41;99442.94;;;8.38
63158;BMP280;49381;49.338;8.794;2023-03-14T19:32:15;99439.59;;;8.36
63158;BMP280;49381;49.338;8.794;2023-03-14T19:37:32;99453.00;;;8.29
63158;BMP280;49381;49.338;8.794;2023-03-14T19:39:36;99448.81;;;8.16
63158;BMP280;49381;49.338;8.794;2023-03-14T19:41:44;99463.00;;;7.94
63158;BMP280;49381;49.338;8.794;2023-03-14T19:44:12;99471.44;;;8.02
63158;BMP280;49381;49.338;8.794;2023-03-14T19:46:39;99474.75;;;7.89
63158;BMP280;49381;49.338;8.794;2023-03-14T19:48:53;99472.16;;;7.74
63158;BMP280;49381;49.338;8.794;2023-03-14T19:51:10;99475.56;;;7.85
63158;BMP280;49381;49.338;8.794;2023-03-14T19:53:15;99493.06;;;7.47
63158;BMP280;49381;49.338;8.794;2023-03-14T19:55:30;99499.56;;;7.15
63158;BMP280;49381;49.338;8.794;2023-03-14T19:58:30;99494.63;;;7.27
63158;BMP280;49381;49.338;8.794;2023-03-14T20:00:42;99506.44;;;7.34
63158;BMP280;49381;49.338;8.794;2023-03-14T20:02:59;99520.59;;;7.17
63158;BMP280;49381;49.338;8.794;2023-03-14T20:05:46;99534.91;;;7.21
63158;BMP280;49381;49.338;8.794;2023-03-14T20:10:28;99531.53;;;7.16
63158;BMP280;49381;49.338;8.794;2023-03-14T20:12:46;99537.47;;;7.28
63158;BMP280;49381;49.338;8.794;2023-03-14T20:16:21;99547.59;;;7.34
63158;BMP280;49381;49.338;8.794;2023-03-14T20:23:17;99555.28;;;7.53
63158;BMP280;49381;49.338;8.794;2023-03-14T20:25:41;99563.75;;;7.63
63158;BMP280;49381;49.338;8.794;2023-03-14T20:27:44;99556.22;;;7.69
63158;BMP280;49381;49.338;8.794;2023-03-14T20:30:14;99567.91;;;7.55
63158;BMP280;49381;49.338;8.794;2023-03-14T20:32:35;99572.09;;;7.52
63158;BMP280;49381;49.338;8.794;2023-03-14T20:34:48;99566.25;;;7.60
63158;BMP280;49381;49.338;8.794;2023-03-14T20:36:56;99554.50;;;7.65
63158;BMP280;49381;49.338;8.794;2023-03-14T20:39:36;99559.59;;;7.68
63158;BMP280;49381;49.338;8.794;2023-03-14T20:41:36;99563.00;;;7.76
63158;BMP280;49381;49.338;8.794;2023-03-14T20:43:52;99558.81;;;7.82
63158;BMP280;49381;49.338;8.794;2023-03-14T20:46:10;99561.38;;;7.86
63158;BMP280;49381;49.338;8.794;2023-03-14T20:48:26;99571.44;;;7.80
63158;BMP280;49381;49.338;8.794;2023-03-14T20:50:43;99584.91;;;7.85
63158;BMP280;49381;49.338;8.794;2023-03-14T20:53:21;99590.81;;;7.86
63158;BMP280;49381;49.338;8.794;2023-03-14T21:01:50;99605.13;;;7.91
63158;BMP280;49381;49.338;8.794;2023-03-14T21:03:09;99614.41;;;7.98
63158;BMP280;49381;49.338;8.794;2023-03-14T21:05:17;99617.78;;;7.96
63158;BMP280;49381;49.338;8.794;2023-03-14T21:07:25;99632.00;;;7.89
63158;BMP280;49381;49.338;8.794;2023-03-14T21:09:39;99636.22;;;7.89
63158;BMP280;49381;49.338;8.794;2023-03-14T21:12:05;99639.50;;;7.79
63158;BMP280;49381;49.338;8.794;2023-03-14T21:14:17;99637.00;;;7.76
63158;BMP280;49381;49.338;8.794;2023-03-14T21:16:25;99629.34;;;7.70
63158;BMP280;49381;49.338;8.794;2023-03-14T21:18:33;99651.81;;;7.36
63158;BMP280;49381;49.338;8.794;2023-03-14T21:20:55;99667.75;;;7.31
63158;BMP280;49381;49.338;8.794;2023-03-14T21:23:14;99668.59;;;7.31
63158;BMP280;49381;49.338;8.794;2023-03-14T21:28:14;99695.22;;;7.07
63158;BMP280;49381;49.338;8.794;2023-03-14T21:30:40;99695.28;;;7.15
63158;BMP280;49381;49.338;8.794;2023-03-14T21:32:46;99699.44;;;7.07
63158;BMP280;49381;49.338;8.794;2023-03-14T21:35:07;99702.84;;;7.12
63158;BMP280;49381;49.338;8.794;2023-03-14T21:37:22;99705.31;;;7.10
63158;BMP280;49381;49.338;8.794;2023-03-14T21:39:45;99707.88;;;7.12
63158;BMP280;49381;49.338;8.794;2023-03-14T21:41:46;99713.75;;;7.15
63158;BMP280;49381;49.338;8.794;2023-03-14T21:44:12;99712.94;;;7.15
63158;BMP280;49381;49.338;8.794;2023-03-14T21:46:12;99721.22;;;7.05
63158;BMP280;49381;49.338;8.794;2023-03-14T21:48:19;99724.63;;;7.10
63158;BMP280;49381;49.338;8.794;2023-03-14T21:50:23;99737.19;;;7.05
63158;BMP280;49381;49.338;8.794;2023-03-14T21:52:24;99743.88;;;7.03
63158;BMP280;49381;49.338;8.794;2023-03-14T21:54:26;99757.31;;;7.01
63158;BMP280;49381;49.338;8.794;2023-03-14T21:56:46;99756.38;;;6.95
63158;BMP280;49381;49.338;8.794;2023-03-14T21:58:49;99764.66;;;6.85
63158;BMP280;49381;49.338;8.794;2023-03-14T22:00:52;99757.97;;;6.87
63158;BMP280;49381;49.338;8.794;2023-03-14T22:02:54;99768.06;;;6.90
63158;BMP280;49381;49.338;8.794;2023-03-14T22:05:02;99777.28;;;6.86
63158;BMP280;49381;49.338;8.794;2023-03-14T22:07:10;99784.97;;;6.97
63158;BMP280;49381;49.338;8.794;2023-03-14T22:09:11;99790.81;;;6.94
63158;BMP280;49381;49.338;8.794;2023-03-14T22:11:15;99802.47;;;6.86
63158;BMP280;49381;49.338;8.794;2023-03-14T22:13:31;99805.03;;;6.89
63158;BMP280;49381;49.338;8.794;2023-03-14T22:15:33;99805.06;;;6.94
63158;BMP280;49381;49.338;8.794;2023-03-14T22:17:34;99812.59;;;6.91
63158;BMP280;49381;49.338;8.794;2023-03-14T22:19:40;99813.47;;;6.91
63158;BMP280;49381;49.338;8.794;2023-03-14T22:22:00;99820.91;;;6.85
63158;BMP280;49381;49.338;8.794;2023-03-14T22:24:19;99825.72;;;6.66
63158;BMP280;49381;49.338;8.794;2023-03-14T22:26:19;99828.19;;;6.63
63158;BMP280;49381;49.338;8.794;2023-03-14T22:28:37;99835.81;;;6.69
63158;BMP280;49381;49.338;8.794;2023-03-14T22:30:52;99832.84;;;6.40
63158;BMP280;49381;49.338;8.794;2023-03-14T22:32:54;99832.78;;;6.34
63158;BMP280;49381;49.338;8.794;2023-03-14T22:34:56;99835.13;;;6.24
63158;BMP280;49381;49.338;8.794;2023-03-14T22:37:07;99844.59;;;5.87
63158;BMP280;49381;49.338;8.794;2023-03-14T22:39:15;99847.13;;;5.90
63158;BMP280;49381;49.338;8.794;2023-03-14T22:41:19;99848.78;;;5.88
63158;BMP280;49381;49.338;8.794;2023-03-14T22:43:26;99855.41;;;5.83
63158;BMP280;49381;49.338;8.794;2023-03-14T22:45:26;99847.56;;;5.68
63158;BMP280;49381;49.338;8.794;2023-03-14T22:47:38;99849.13;;;5.62
63158;BMP280;49381;49.338;8.794;2023-03-14T22:49:41;99855.69;;;5.55
63158;BMP280;49381;49.338;8.794;2023-03-14T22:51:44;99856.63;;;5.60
63158;BMP280;49381;49.338;8.794;2023-03-14T22:53:48;99859.00;;;5.53
63158;BMP280;49381;49.338;8.794;2023-03-14T22:56:25;99866.69;;;5.60
63158;BMP280;49381;49.338;8.794;2023-03-14T22:58:36;99868.16;;;5.51
63158;BMP280;49381;49.338;8.794;2023-03-14T23:00:41;99866.28;;;5.40
63158;BMP280;49381;49.338;8.794;2023-03-14T23:03:10;99869.16;;;5.59
63158;BMP280;49381;49.338;8.794;2023-03-14T23:05:56;99872.78;;;5.71
63158;BMP280;49381;49.338;8.794;2023-03-14T23:07:52;99878.50;;;5.64
63158;BMP280;49381;49.338;8.794;2023-03-14T23:09:54;99884.44;;;5.68
63158;BMP280;49381;49.338;8.794;2023-03-14T23:14:26;99896.59;;;5.91
63158;BMP280;49381;49.338;8.794;2023-03-14T23:16:30;99893.16;;;5.86
63158;BMP280;49381;49.338;8.794;2023-03-14T23:18:32;99895.66;;;5.84
63158;BMP280;49381;49.338;8.794;2023-03-14T23:21:03;99895.69;;;5.86
63158;BMP280;49381;49.338;8.794;2023-03-14T23:23:09;99894.88;;;5.87
63158;BMP280;49381;49.338;8.794;2023-03-14T23:28:14;99914.75;;;5.75
63158;BMP280;49381;49.338;8.794;2023-03-14T23:30:38;99922.19;;;5.69
63158;BMP280;49381;49.338;8.794;2023-03-14T23:33:14;99930.59;;;5.71
63158;BMP280;49381;49.338;8.794;2023-03-14T23:35:25;99943.78;;;5.61
63158;BMP280;49381;49.338;8.794;2023-03-14T23:37:51;99936.56;;;5.76
63158;BMP280;49381;49.338;8.794;2023-03-14T23:40:08;99949.94;;;5.72
63158;BMP280;49381;49.338;8.794;2023-03-14T23:42:38;99947.09;;;5.57
63158;BMP280;49381;49.338;8.794;2023-03-14T23:44:42;99957.13;;;5.57
63158;BMP280;49381;49.338;8.794;2023-03-14T23:46:48;99957.41;;;5.31
63158;BMP280;49381;49.338;8.794;2023-03-14T23:48:50;99965.63;;;5.23
63158;BMP280;49381;49.338;8.794;2023-03-14T23:51:07;99960.50;;;5.19
63158;BMP280;49381;49.338;8.794;2023-03-14T23:53:09;99972.16;;;5.17
63158;BMP280;49381;49.338;8.794;2023-03-14T23:55:09;99977.91;;;5.11
63158;BMP280;49381;49.338;8.794;2023-03-14T23:57:13;99984.91;;;5.24
63158;BMP280;49381;49.338;8.794;2023-03-14T23:59:18;99994.47;;;5.03
